• Join FlightAware (Why Join?)
  • Login
  • US Flag 
01:26AM EDT


 

Airport Tracker/Info


-or-


 

Live Flight TrackerFlight Track Log ✈ N52712 ✈ 22-May-2013 ✈ KBED - KBED

Flight Track Log - Related Links

Times and Time Zones

All times are in EDT time to prevent confusion due to time zone crossing. See the N52712 flight status page for this flight to view local times or setup timezone preferences in your user account.

Time Position Orientation Groundspeed Altitude Reporting Facility
EDT Latitude Longitude Course Direction KTS MPH feet Rate Location/Type
03:33PM 42.4667 -71.2667 56° Northeast 82 94 900  Level KA90
03:34PM 42.4833 -71.2333 56° Northeast 81 93 1,700 660 Climbing KA90
03:35PM 42.5000 -71.2000 56° Northeast 97 112 2,400 540 Climbing KA90
03:36PM 42.5000 -71.1667 90° East 106 122 2,900 300 Climbing KA90
03:37PM 42.5167 -71.1167 66° East 130 150 3,000  Climbing KA90
03:38PM 42.5500 -71.1000 20° North 136 157 2,900  Descending KA90
03:39PM 42.5833 -71.1000 360° North 119 137 3,000  Climbing KA90
03:40PM 42.6167 -71.1167 340° North 121 139 3,000  Level KA90
03:41PM 42.6333 -71.1500 304° West 116 133 3,000  Level KA90
03:42PM 42.6667 -71.1833 324° Northwest 115 132 3,000  Level KA90
03:43PM 42.6833 -71.2000 324° Northwest 109 125 3,000  Level KA90
03:44PM 42.7000 -71.2333 304° West 101 116 3,000  Level KA90
03:45PM 42.7167 -71.2667 304° West 110 127 3,000  Level KA90
03:46PM 42.7167 -71.3000 270° West 101 116 3,000  Level KA90
03:47PM 42.7333 -71.3333 304° West 92 106 3,000  Level KA90
03:48PM 42.7333 -71.3667 270° West 90 104 3,000  Level KA90
03:49PM 42.7333 -71.4167 270° West 90 104 3,000  Level KA90
03:50PM 42.7333 -71.4500 270° West 88 101 3,000  Level KA90
03:51PM 42.7333 -71.4833 270° West 88 101 3,000  Level KA90
03:52PM 42.7333 -71.5167 270° West 90 104 3,000  Level KA90
03:53PM 42.7333 -71.5500 270° West 104 120 3,000  Level KA90
03:54PM 42.7667 -71.5667 340° North 107 123 3,000  Level KA90
03:55PM 42.7833 -71.6000 304° West 109 125 3,000 -120 Level KA90
03:56PM 42.8167 -71.5833 20° North 133 153 2,800 -480 Descending KA90
03:57PM 42.8500 -71.5500 36° Northeast 126 145 2,100 -360 Descending KA90
03:58PM 42.8667 -71.5333 36° Northeast 105 121 2,100 -300 Level KA90
03:59PM 42.8833 -71.5000 56° Northeast 103 119 1,600 -600 Descending KA90
04:00PM 42.9000 -71.4833 36° Northeast 98 113 1,000 -600 Descending KA90
04:01PM 42.9167 -71.4667 36° Northeast 76 87 500 -120 Descending KA90
04:03PM 42.8697 -71.4364 155° Southeast  Level FlightAware Approximate
04:03PM 42.9500 -71.4167 155° Southeast 84 97 800  Level KA90
04:05PM 42.9500 -71.3833 90° East 89 102 1,700 600 Climbing KA90
04:06PM 42.9333 -71.3667 144° Southeast 91 105 2,300 600 Climbing KA90
04:07PM 42.9167 -71.3333 124° Southeast 97 112 3,000 300 Climbing KA90
04:08PM 42.8833 -71.3000 144° Southeast 102 117 3,000  Level KA90
04:09PM 42.8667 -71.2833 144° Southeast 107 123 3,000 -60 Level KA90
04:10PM 42.8500 -71.2667 144° Southeast 89 102 2,900 -60 Descending KA90
04:11PM 42.8167 -71.2833 200° South 90 104 2,900  Level KA90
04:12PM 42.8000 -71.2833 180° South 91 105 3,000 60 Climbing KA90